createdAt,value
2022-11-21T00:01:52.383Z,29.80
2022-11-21T00:04:18.682Z,32.47
2022-11-21T00:06:44.970Z,30.77
2022-11-21T00:09:11.195Z,29.53
2022-11-21T00:11:38.175Z,27.57
2022-11-21T00:14:04.412Z,27.00
2022-11-21T00:16:30.879Z,22.80
2022-11-21T00:18:57.855Z,23.90
2022-11-21T00:21:24.480Z,26.90
2022-11-21T00:23:52.520Z,28.23
2022-11-21T00:26:19.202Z,25.63
2022-11-21T00:28:46.322Z,27.90
2022-11-21T00:31:18.346Z,23.70
2022-11-21T00:33:44.890Z,30.23
2022-11-21T00:36:11.662Z,25.47
2022-11-21T00:38:38.227Z,26.90
2022-11-21T00:41:05.259Z,26.07
2022-11-21T00:43:32.167Z,27.87
2022-11-21T00:46:01.819Z,28.63
2022-11-21T00:48:29.093Z,30.87
2022-11-21T00:50:55.660Z,33.47
2022-11-21T00:53:22.235Z,37.27
2022-11-21T00:55:48.686Z,40.07
2022-11-21T00:58:15.176Z,39.60
2022-11-21T01:00:41.878Z,39.90
2022-11-21T01:03:09.313Z,41.43
2022-11-21T01:05:35.957Z,41.87
2022-11-21T01:08:02.527Z,35.90
2022-11-21T01:10:29.057Z,46.67
2022-11-21T01:12:55.762Z,51.87
2022-11-21T01:15:22.450Z,48.50
2022-11-21T01:17:49.465Z,57.77
2022-11-21T01:20:17.281Z,55.43
2022-11-21T01:22:44.350Z,64.97
2022-11-21T01:25:10.917Z,58.80
2022-11-21T01:27:37.568Z,59.23
2022-11-21T01:30:05.057Z,64.87
2022-11-21T01:32:31.624Z,65.67
2022-11-21T01:34:58.097Z,68.20
2022-11-21T01:37:25.108Z,61.97
2022-11-21T01:39:51.421Z,70.73
2022-11-21T01:42:17.677Z,67.93
2022-11-21T01:44:49.788Z,74.37
2022-11-21T01:47:16.399Z,69.00
2022-11-21T01:49:43.867Z,67.47
2022-11-21T01:52:12.770Z,71.53
2022-11-21T01:54:41.928Z,71.57
2022-11-21T01:57:11.258Z,72.00
2022-11-21T01:59:40.180Z,74.07
2022-11-21T02:02:08.411Z,75.37
2022-11-21T02:04:35.348Z,74.37
2022-11-21T02:07:03.909Z,72.30
2022-11-21T02:09:31.974Z,71.07
2022-11-21T02:12:02.802Z,67.57
2022-11-21T02:14:29.946Z,78.87
2022-11-21T02:16:58.488Z,80.63
2022-11-21T02:19:30.196Z,76.57
2022-11-21T02:22:01.343Z,66.17
2022-11-21T02:24:32.327Z,79.13
2022-11-21T02:26:59.981Z,70.63
2022-11-21T02:29:27.296Z,72.40
2022-11-21T02:31:53.832Z,77.73
2022-11-21T02:34:20.549Z,71.93
2022-11-21T02:36:47.759Z,73.07
2022-11-21T02:39:17.954Z,64.10
2022-11-21T02:41:51.405Z,66.90
2022-11-21T02:44:22.871Z,63.87
2022-11-21T02:46:50.776Z,68.73
2022-11-21T02:49:23.820Z,66.03
2022-11-21T02:51:50.455Z,65.80
2022-11-21T02:54:17.147Z,71.03
2022-11-21T02:56:43.707Z,63.27
2022-11-21T02:59:10.260Z,60.97
2022-11-21T03:01:37.584Z,61.80
2022-11-21T03:04:04.519Z,66.70
2022-11-21T03:06:31.007Z,57.60
2022-11-21T03:08:57.464Z,61.73
2022-11-21T03:11:23.910Z,64.33
2022-11-21T03:13:50.273Z,56.13
2022-11-21T03:16:16.953Z,58.10
2022-11-21T03:18:44.473Z,56.17
2022-11-21T03:21:10.987Z,57.27
2022-11-21T03:23:37.566Z,62.33
2022-11-21T03:26:04.056Z,59.23
2022-11-21T03:28:30.569Z,59.67
2022-11-21T03:30:57.091Z,62.17
2022-11-21T03:33:23.647Z,59.60
2022-11-21T03:35:50.830Z,62.13
2022-11-21T03:38:17.405Z,61.23
2022-11-21T03:40:43.831Z,63.17
2022-11-21T03:43:10.346Z,58.83
2022-11-21T03:45:36.829Z,58.77
2022-11-21T03:48:03.718Z,59.30
2022-11-21T03:50:30.456Z,72.00
2022-11-21T03:52:57.532Z,67.13
2022-11-21T03:55:23.906Z,59.43
2022-11-21T03:57:50.161Z,66.30
2022-11-21T04:00:17.220Z,65.53
2022-11-21T04:02:43.932Z,62.00
2022-11-21T04:05:10.311Z,63.33
2022-11-21T04:07:36.672Z,63.40
2022-11-21T04:10:04.105Z,72.80
2022-11-21T04:12:30.439Z,62.80
2022-11-21T04:14:57.034Z,62.53
2022-11-21T04:17:23.739Z,60.53
2022-11-21T04:19:50.129Z,64.23
2022-11-21T04:22:16.845Z,56.27
2022-11-21T04:24:43.538Z,61.10
2022-11-21T04:27:10.616Z,65.80
2022-11-21T04:29:37.294Z,57.73
2022-11-21T04:32:03.831Z,58.07
2022-11-21T04:34:30.750Z,61.13
2022-11-21T04:36:57.158Z,57.03
2022-11-21T04:39:23.455Z,55.17
2022-11-21T04:41:49.703Z,64.20
2022-11-21T04:44:16.705Z,63.27
2022-11-21T04:46:43.002Z,60.73
2022-11-21T04:49:09.472Z,54.97
2022-11-21T04:51:35.856Z,66.70
2022-11-21T04:54:02.408Z,64.03
2022-11-21T04:56:28.972Z,62.90
2022-11-21T04:58:55.507Z,71.50
2022-11-21T05:01:22.772Z,66.03
2022-11-21T05:03:49.236Z,74.87
2022-11-21T05:06:15.868Z,71.57
2022-11-21T05:08:42.344Z,77.43
2022-11-21T05:11:27.142Z,74.27
2022-11-21T05:13:53.670Z,71.37
2022-11-21T05:16:22.985Z,63.63
2022-11-21T05:18:50.399Z,69.07
2022-11-21T05:21:16.682Z,69.87
2022-11-21T05:23:42.965Z,77.30
2022-11-21T05:26:09.443Z,72.23
2022-11-21T05:28:35.809Z,82.77
2022-11-21T05:31:02.355Z,73.33
2022-11-21T05:33:28.495Z,79.03
2022-11-21T05:35:55.279Z,78.70
2022-11-21T05:38:21.456Z,73.77
2022-11-21T05:40:47.583Z,70.57
2022-11-21T05:43:32.146Z,74.50
2022-11-21T05:45:58.399Z,71.90
2022-11-21T05:48:24.535Z,75.07
2022-11-21T05:50:50.670Z,80.20
2022-11-21T05:53:17.631Z,73.43
2022-11-21T05:55:43.808Z,74.90
2022-11-21T05:58:10.408Z,81.00
2022-11-21T06:00:36.826Z,81.47
2022-11-21T06:03:21.200Z,72.20
2022-11-21T06:05:47.369Z,72.57
2022-11-21T06:08:13.552Z,77.63
2022-11-21T06:10:40.374Z,73.57
2022-11-21T06:13:21.148Z,73.00
2022-11-21T06:15:49.390Z,76.13
2022-11-21T06:18:15.520Z,69.87
2022-11-21T06:20:41.636Z,93.10
2022-11-21T06:23:07.767Z,80.17
2022-11-21T06:25:33.913Z,94.97
2022-11-21T06:28:00.709Z,90.93
2022-11-21T06:30:26.839Z,84.33
2022-11-21T06:32:53.066Z,82.33
2022-11-21T06:35:19.433Z,82.53
2022-11-21T06:37:49.585Z,89.20
2022-11-21T06:40:18.363Z,78.97
2022-11-21T06:42:44.591Z,83.47
2022-11-21T06:45:11.358Z,80.17
2022-11-21T06:47:37.509Z,83.77
2022-11-21T06:50:04.004Z,87.30
2022-11-21T06:52:32.386Z,92.87
2022-11-21T06:54:59.048Z,74.87
2022-11-21T06:57:25.166Z,83.83
2022-11-21T06:59:51.268Z,66.87
2022-11-21T07:02:18.071Z,82.83
2022-11-21T07:04:44.236Z,82.67
2022-11-21T07:07:10.413Z,75.00
2022-11-21T07:09:36.564Z,79.23
2022-11-21T07:12:17.482Z,76.83
2022-11-21T07:14:43.629Z,87.80
2022-11-21T07:17:10.763Z,82.03
2022-11-21T07:19:40.879Z,77.70
2022-11-21T07:22:07.839Z,79.50
2022-11-21T07:24:34.243Z,70.57
2022-11-21T07:27:01.003Z,74.33
2022-11-21T07:29:27.445Z,71.83
2022-11-21T07:31:54.446Z,78.57
2022-11-21T07:34:20.619Z,68.57
2022-11-21T07:36:47.398Z,78.40
2022-11-21T07:39:13.597Z,70.77
2022-11-21T07:41:39.725Z,67.60
2022-11-21T07:44:06.079Z,74.23
2022-11-21T07:46:32.479Z,86.60
2022-11-21T07:49:03.113Z,67.73
2022-11-21T07:51:30.155Z,71.30
2022-11-21T07:53:57.155Z,67.37
2022-11-21T07:56:25.788Z,80.03
2022-11-21T07:58:52.518Z,64.40
2022-11-21T08:01:18.716Z,77.50
2022-11-21T08:03:44.833Z,78.20
2022-11-21T08:06:12.499Z,71.10
2022-11-21T08:08:38.694Z,67.47
2022-11-21T08:11:06.461Z,64.77
2022-11-21T08:13:32.745Z,66.97
2022-11-21T08:15:58.886Z,62.27
2022-11-21T08:18:25.572Z,62.97
2022-11-21T08:20:51.719Z,59.27
2022-11-21T08:23:17.910Z,55.90
2022-11-21T08:25:44.764Z,56.30
2022-11-21T08:28:11.633Z,60.80
2022-11-21T08:30:38.182Z,52.33
2022-11-21T08:33:05.239Z,59.23
2022-11-21T08:35:31.625Z,52.30
2022-11-21T08:37:58.479Z,58.63
2022-11-21T08:40:25.345Z,49.10
2022-11-21T08:42:56.164Z,51.40
2022-11-21T08:45:22.944Z,52.13
2022-11-21T08:47:49.083Z,51.33
2022-11-21T08:50:15.511Z,49.23
2022-11-21T08:52:41.638Z,40.20
2022-11-21T08:55:09.252Z,47.80
2022-11-21T08:57:37.521Z,44.57
2022-11-21T09:00:04.833Z,36.57
2022-11-21T09:02:31.837Z,40.87
2022-11-21T09:04:58.966Z,30.73
2022-11-21T09:07:25.382Z,27.30
2022-11-21T09:09:51.671Z,24.37
2022-11-21T09:12:17.848Z,24.03
2022-11-21T09:15:02.187Z,23.87
2022-11-21T09:17:47.892Z,27.27
2022-11-21T09:20:15.127Z,27.63
2022-11-21T09:22:41.357Z,25.83
2022-11-21T09:25:08.217Z,35.50
2022-11-21T09:27:34.326Z,22.53
2022-11-21T09:30:00.526Z,19.10
2022-11-21T09:32:26.717Z,23.03
2022-11-21T09:34:52.893Z,22.67
2022-11-21T09:37:19.679Z,18.13
2022-11-21T09:39:45.865Z,20.37
2022-11-21T09:42:54.115Z,18.67
2022-11-21T09:45:23.108Z,16.83
2022-11-21T09:47:50.583Z,17.73
2022-11-21T09:50:24.851Z,19.47
2022-11-21T09:52:55.759Z,16.33
2022-11-21T09:55:26.338Z,18.50
2022-11-21T09:57:52.482Z,20.53
2022-11-21T10:00:20.594Z,18.63
2022-11-21T10:02:47.087Z,23.63
2022-11-21T10:05:14.113Z,17.87
2022-11-21T10:07:41.297Z,14.70
2022-11-21T10:10:18.929Z,17.33
2022-11-21T10:12:53.959Z,17.97
2022-11-21T10:15:29.661Z,15.43
2022-11-21T10:18:19.471Z,19.97
2022-11-21T10:20:52.553Z,18.73
2022-11-21T10:23:35.876Z,20.63
2022-11-21T10:26:14.567Z,18.00
2022-11-21T10:28:45.679Z,15.07
2022-11-21T10:31:13.129Z,14.73
2022-11-21T10:33:40.244Z,23.10
2022-11-21T10:36:11.845Z,18.67
2022-11-21T10:38:40.861Z,17.63
2022-11-21T10:41:15.350Z,15.70
2022-11-21T10:44:02.004Z,14.83
2022-11-21T10:46:28.222Z,17.27
2022-11-21T10:48:56.480Z,19.83
2022-11-21T10:51:33.351Z,17.53
2022-11-21T10:54:31.234Z,16.50
2022-11-21T10:57:01.031Z,13.50
2022-11-21T10:59:30.840Z,13.00
2022-11-21T11:01:59.055Z,14.43
2022-11-21T11:04:28.159Z,20.43
2022-11-21T11:06:55.576Z,25.70
2022-11-21T11:09:23.514Z,16.83
2022-11-21T11:11:49.790Z,23.33
2022-11-21T11:14:28.594Z,21.20
2022-11-21T11:16:55.061Z,15.20
2022-11-21T11:19:32.665Z,17.03
2022-11-21T11:22:02.216Z,21.57
2022-11-21T11:24:28.389Z,16.33
2022-11-21T11:26:59.730Z,15.37
2022-11-21T11:29:29.739Z,20.97
2022-11-21T11:31:59.477Z,13.77
2022-11-21T11:34:28.544Z,16.07
2022-11-21T11:36:59.172Z,15.50
2022-11-21T11:39:36.851Z,20.43
2022-11-21T11:42:42.539Z,15.13
2022-11-21T11:45:34.421Z,16.10
2022-11-21T11:48:01.816Z,18.03
2022-11-21T11:50:32.010Z,13.83
2022-11-21T11:53:04.108Z,13.23
2022-11-21T11:55:35.957Z,14.97
2022-11-21T11:58:06.312Z,13.90
2022-11-21T12:00:39.292Z,16.93
2022-11-21T12:03:11.870Z,14.77
2022-11-21T12:05:52.254Z,9.67
2022-11-21T12:11:33.268Z,14.47
2022-11-21T12:14:08.502Z,12.77
2022-11-21T12:16:36.382Z,18.83
2022-11-21T12:19:08.082Z,9.93
2022-11-21T12:21:34.280Z,14.33
2022-11-21T12:24:03.094Z,16.00
2022-11-21T12:26:44.516Z,10.27
2022-11-21T12:29:34.292Z,6.93
2022-11-21T12:32:26.385Z,12.87
2022-11-21T12:35:04.339Z,10.10
2022-11-21T12:37:39.223Z,4.07
2022-11-21T12:40:11.894Z,4.33
2022-11-21T12:42:50.345Z,11.17
2022-11-21T12:45:34.327Z,8.30
2022-11-21T12:48:31.426Z,6.90
2022-11-21T12:51:53.514Z,11.60
2022-11-21T12:54:35.022Z,13.57
2022-11-21T12:57:08.414Z,13.50
2022-11-21T12:59:42.313Z,11.63
2022-11-21T13:02:24.536Z,13.10
2022-11-21T13:04:53.372Z,17.40
2022-11-21T13:07:20.598Z,17.63
2022-11-21T13:09:48.803Z,15.40
2022-11-21T13:12:19.281Z,16.67
2022-11-21T13:14:49.120Z,15.57
2022-11-21T13:17:36.673Z,8.00
2022-11-21T13:20:06.447Z,13.40
2022-11-21T13:22:50.076Z,12.47
2022-11-21T13:25:38.635Z,9.83
2022-11-21T13:28:38.042Z,12.57
2022-11-21T13:31:31.495Z,6.27
2022-11-21T13:33:58.250Z,4.43
2022-11-21T13:36:38.534Z,3.73
2022-11-21T13:39:35.411Z,2.83
2022-11-21T13:42:30.467Z,4.50
2022-11-21T13:44:57.307Z,4.73
2022-11-21T13:48:15.401Z,7.07
2022-11-21T13:51:03.238Z,3.87
2022-11-21T13:53:46.210Z,5.53
2022-11-21T13:56:25.098Z,7.50
2022-11-21T13:59:00.035Z,4.13
2022-11-21T14:01:39.580Z,4.10
2022-11-21T14:04:37.801Z,6.40
2022-11-21T14:07:21.016Z,6.83
2022-11-21T14:09:49.478Z,3.17
2022-11-21T14:12:20.592Z,4.87
2022-11-21T14:14:50.183Z,3.80
2022-11-21T14:17:33.728Z,3.67
2022-11-21T14:20:07.752Z,5.67
2022-11-21T14:22:45.047Z,4.37
2022-11-21T14:25:17.470Z,2.37
2022-11-21T14:27:47.275Z,3.60
2022-11-21T14:30:32.463Z,4.37
2022-11-21T14:33:23.756Z,3.60
2022-11-21T14:35:52.598Z,5.43
2022-11-21T14:38:19.378Z,6.30
2022-11-21T14:40:46.261Z,4.00
2022-11-21T14:43:28.743Z,5.90
2022-11-21T14:45:54.895Z,7.47
2022-11-21T14:48:25.896Z,4.73
2022-11-21T14:50:52.123Z,4.07
2022-11-21T14:53:18.346Z,5.87
2022-11-21T14:55:49.580Z,2.87
2022-11-21T14:58:16.043Z,7.00
2022-11-21T15:01:02.323Z,2.57
2022-11-21T15:03:28.717Z,1.80
2022-11-21T15:06:05.862Z,4.13
2022-11-21T15:11:23.185Z,7.33
2022-11-21T15:14:14.430Z,6.47
2022-11-21T15:16:38.129Z,5.10
2022-11-21T15:19:08.597Z,6.73
2022-11-21T15:21:35.114Z,4.73
2022-11-21T15:24:15.748Z,5.50
2022-11-21T15:26:42.566Z,6.73
2022-11-21T15:29:18.676Z,4.33
2022-11-21T15:31:46.257Z,4.37
2022-11-21T15:34:34.192Z,7.80
2022-11-21T15:37:04.215Z,3.03
2022-11-21T15:39:30.587Z,3.63
2022-11-21T15:42:27.523Z,6.23
2022-11-21T15:44:58.726Z,5.57
2022-11-21T15:47:24.879Z,6.23
2022-11-21T15:49:51.012Z,13.70
2022-11-21T15:52:17.268Z,2.67
2022-11-21T15:54:43.454Z,7.87
2022-11-21T15:57:09.763Z,5.10
2022-11-21T15:59:36.706Z,4.90
2022-11-21T16:02:02.931Z,5.17
2022-11-21T16:04:29.187Z,3.77
2022-11-21T16:06:55.333Z,12.67
2022-11-21T16:09:21.488Z,8.80
2022-11-21T16:11:47.653Z,7.00
2022-11-21T16:14:15.442Z,4.40
2022-11-21T16:16:43.701Z,6.17
2022-11-21T16:19:10.874Z,5.00
2022-11-21T16:21:37.073Z,4.50
2022-11-21T16:24:03.643Z,5.93
2022-11-21T16:26:29.792Z,7.37
2022-11-21T16:28:56.083Z,4.13
2022-11-21T16:31:23.275Z,4.73
2022-11-21T16:33:50.248Z,4.83
2022-11-21T16:36:19.657Z,4.20
2022-11-21T16:38:47.042Z,6.23
2022-11-21T16:41:13.520Z,5.33
2022-11-21T16:43:45.822Z,7.43
2022-11-21T16:46:12.416Z,4.00
2022-11-21T16:48:38.619Z,7.57
2022-11-21T16:51:11.091Z,6.57
2022-11-21T16:53:37.609Z,7.43
2022-11-21T16:56:04.224Z,5.00
2022-11-21T16:58:30.427Z,3.03
2022-11-21T17:00:56.719Z,3.53
2022-11-21T17:03:23.049Z,6.50
2022-11-21T17:05:56.186Z,5.37
2022-11-21T17:08:23.016Z,6.70
2022-11-21T17:10:49.495Z,5.47
2022-11-21T17:13:16.354Z,4.70
2022-11-21T17:15:42.568Z,5.13
2022-11-21T17:18:08.741Z,7.77
2022-11-21T17:20:34.858Z,8.73
2022-11-21T17:23:01.959Z,15.83
2022-11-21T17:25:28.896Z,13.07
2022-11-21T17:27:55.060Z,10.50
2022-11-21T17:30:21.779Z,7.87
2022-11-21T17:32:48.019Z,6.93
2022-11-21T17:35:14.331Z,7.60
2022-11-21T17:37:40.527Z,12.87
2022-11-21T17:40:11.255Z,5.73
2022-11-21T17:42:39.926Z,6.80
2022-11-21T17:45:07.190Z,6.07
2022-11-21T17:47:33.840Z,7.23
2022-11-21T17:50:05.389Z,4.37
2022-11-21T17:52:32.426Z,6.50
2022-11-21T17:54:58.607Z,2.67
2022-11-21T17:57:25.176Z,7.73
2022-11-21T17:59:52.054Z,9.50
2022-11-21T18:02:20.322Z,9.50
2022-11-21T18:04:47.120Z,10.67
2022-11-21T18:07:13.481Z,5.40
2022-11-21T18:09:39.791Z,8.63
2022-11-21T18:12:06.136Z,6.67
2022-11-21T18:14:32.302Z,8.60
2022-11-21T18:16:59.139Z,6.10
2022-11-21T18:19:25.287Z,9.27
2022-11-21T18:21:51.467Z,5.50
2022-11-21T18:24:18.255Z,7.27
2022-11-21T18:26:44.626Z,4.50
2022-11-21T18:29:35.224Z,7.10
2022-11-21T18:31:57.024Z,8.93
2022-11-21T18:34:23.817Z,9.37
2022-11-21T18:36:50.011Z,6.27
2022-11-21T18:39:16.213Z,4.43
2022-11-21T18:41:42.966Z,4.30
2022-11-21T18:44:09.367Z,6.43
2022-11-21T18:46:36.591Z,7.87
2022-11-21T18:49:06.408Z,6.37
2022-11-21T18:51:34.904Z,8.33
2022-11-21T18:54:04.334Z,7.60
2022-11-21T18:56:30.735Z,5.73
2022-11-21T18:58:58.805Z,4.03
2022-11-21T19:01:26.850Z,4.93
2022-11-21T19:03:54.222Z,4.47
2022-11-21T19:06:21.971Z,5.50
2022-11-21T19:08:49.950Z,10.40
2022-11-21T19:11:16.987Z,9.90
2022-11-21T19:13:43.829Z,9.07
2022-11-21T19:16:11.876Z,7.03
2022-11-21T19:18:41.181Z,4.83
2022-11-21T19:21:11.533Z,10.77
2022-11-21T19:23:39.677Z,10.60
2022-11-21T19:26:08.686Z,8.37
2022-11-21T19:28:35.357Z,6.43
2022-11-21T19:31:02.599Z,11.43
2022-11-21T19:33:29.613Z,6.83
2022-11-21T19:36:00.519Z,8.40
2022-11-21T19:38:26.689Z,5.53
2022-11-21T19:41:11.303Z,7.20
2022-11-21T19:43:38.182Z,10.30
2022-11-21T19:46:05.297Z,7.33
2022-11-21T19:48:31.481Z,6.23
2022-11-21T19:50:58.771Z,9.73
2022-11-21T19:53:26.334Z,8.53
2022-11-21T19:55:52.536Z,10.47
2022-11-21T19:58:19.135Z,3.40
2022-11-21T20:00:46.060Z,6.67
2022-11-21T20:03:12.361Z,9.23
2022-11-21T20:05:38.539Z,9.73
2022-11-21T20:08:14.289Z,13.10
2022-11-21T20:10:43.449Z,12.10
2022-11-21T20:13:10.022Z,8.13
2022-11-21T20:15:38.179Z,14.07
2022-11-21T20:18:05.222Z,10.03
2022-11-21T20:20:31.603Z,5.00
2022-11-21T20:22:57.879Z,5.80
2022-11-21T20:25:24.128Z,9.50
2022-11-21T20:27:50.956Z,6.53
2022-11-21T20:30:17.514Z,12.00
2022-11-21T20:32:43.963Z,11.20
2022-11-21T20:35:11.263Z,5.07
2022-11-21T20:37:37.447Z,8.87
2022-11-21T20:40:04.213Z,9.03
2022-11-21T20:42:30.452Z,9.37
2022-11-21T20:45:54.515Z,8.20
2022-11-21T20:47:42.769Z,11.33
2022-11-21T20:50:09.827Z,7.77
2022-11-21T20:55:22.946Z,7.03
2022-11-21T20:57:49.296Z,9.63
2022-11-21T21:00:16.554Z,7.73
2022-11-21T21:02:42.720Z,9.27
2022-11-21T21:05:09.488Z,16.70
2022-11-21T21:07:36.373Z,8.10
2022-11-21T21:10:02.853Z,6.67
2022-11-21T21:12:30.555Z,6.87
2022-11-21T21:14:56.719Z,10.17
2022-11-21T21:17:22.933Z,10.20
2022-11-21T21:19:49.164Z,10.60
2022-11-21T21:22:15.381Z,7.63
2022-11-21T21:24:42.173Z,8.87
2022-11-21T21:27:08.273Z,11.70
2022-11-21T21:29:34.398Z,6.90
2022-11-21T21:32:00.634Z,8.03
2022-11-21T21:34:26.855Z,10.50
2022-11-21T21:36:53.058Z,9.97
2022-11-21T21:39:19.232Z,7.50
2022-11-21T21:41:46.767Z,7.53
2022-11-21T21:44:13.703Z,8.37
2022-11-21T21:46:39.850Z,6.90
2022-11-21T21:49:06.000Z,6.43
2022-11-21T21:51:32.274Z,7.13
2022-11-21T21:53:59.211Z,7.07
2022-11-21T21:56:27.125Z,8.80
2022-11-21T21:58:54.205Z,8.03
2022-11-21T22:01:22.209Z,12.23
2022-11-21T22:03:52.351Z,10.90
2022-11-21T22:06:18.983Z,8.30
2022-11-21T22:08:46.122Z,5.30
2022-11-21T22:11:13.639Z,9.27
2022-11-21T22:13:41.695Z,9.37
2022-11-21T22:16:11.406Z,10.77
2022-11-21T22:18:37.640Z,7.83
2022-11-21T22:21:12.680Z,3.63
2022-11-21T22:23:51.232Z,5.80
2022-11-21T22:26:24.934Z,5.07
2022-11-21T22:28:51.119Z,5.33
2022-11-21T22:31:18.119Z,11.67
2022-11-21T22:33:45.253Z,4.73
2022-11-21T22:36:12.690Z,6.97
2022-11-21T22:38:39.028Z,7.37
2022-11-21T22:41:06.739Z,6.30
2022-11-21T22:43:33.067Z,5.23
2022-11-21T22:46:00.031Z,3.83
2022-11-21T22:48:26.880Z,10.77
2022-11-21T22:50:53.059Z,11.00
2022-11-21T22:53:19.199Z,7.83
2022-11-21T22:55:45.422Z,8.13
2022-11-21T22:58:11.566Z,7.77
2022-11-21T23:00:37.736Z,11.53
2022-11-21T23:03:03.885Z,6.87
2022-11-21T23:05:30.664Z,8.30
2022-11-21T23:07:56.835Z,7.73
2022-11-21T23:10:23.027Z,10.23
2022-11-21T23:12:49.153Z,9.03
2022-11-21T23:15:15.412Z,7.80
2022-11-21T23:17:41.566Z,8.27
2022-11-21T23:20:08.774Z,4.83
2022-11-21T23:22:35.563Z,7.40
2022-11-21T23:25:01.736Z,4.93
2022-11-21T23:27:27.927Z,7.30
2022-11-21T23:29:54.112Z,4.53
2022-11-21T23:32:20.290Z,5.33
2022-11-21T23:34:46.427Z,8.57
2022-11-21T23:37:12.560Z,4.13
2022-11-21T23:39:39.422Z,6.47
2022-11-21T23:42:05.593Z,3.50
2022-11-21T23:44:31.779Z,13.17
2022-11-21T23:46:57.944Z,5.20
2022-11-21T23:49:24.115Z,6.73
2022-11-21T23:51:50.222Z,4.70
2022-11-21T23:54:16.481Z,4.50
2022-11-21T23:56:43.221Z,6.07
2022-11-21T23:59:10.906Z,5.70
